createdAt,value
2018-06-10T00:00:33.752Z,20.60
2018-06-10T00:03:02.611Z,20.00
2018-06-10T00:05:31.567Z,20.00
2018-06-10T00:08:00.480Z,20.00
2018-06-10T00:10:29.530Z,19.90
2018-06-10T00:15:26.941Z,19.90
2018-06-10T00:17:55.780Z,20.00
2018-06-10T00:20:24.716Z,20.00
2018-06-10T00:22:53.540Z,20.00
2018-06-10T00:25:22.423Z,20.00
2018-06-10T00:27:51.350Z,20.10
2018-06-10T00:30:20.313Z,20.10
2018-06-10T00:32:49.130Z,20.10
2018-06-10T00:37:46.561Z,20.10
2018-06-10T00:40:15.464Z,20.00
2018-06-10T00:42:44.401Z,19.60
2018-06-10T00:45:13.393Z,19.30
2018-06-10T00:47:42.300Z,19.20
2018-06-10T00:50:11.150Z,19.30
2018-06-10T00:52:40.109Z,19.20
2018-06-10T00:55:09.004Z,19.00
2018-06-10T00:57:37.833Z,18.90
2018-06-10T01:02:35.170Z,18.90
2018-06-10T01:05:04.111Z,18.80
2018-06-10T01:07:33.039Z,18.90
2018-06-10T01:10:01.864Z,19.10
2018-06-10T01:14:59.238Z,18.90
2018-06-10T01:19:56.783Z,18.80
2018-06-10T01:22:25.701Z,18.80
2018-06-10T01:27:23.064Z,18.90
2018-06-10T01:29:51.953Z,18.90
2018-06-10T01:32:20.825Z,18.90
2018-06-10T01:34:49.672Z,19.00
2018-06-10T01:37:18.618Z,19.00
2018-06-10T01:39:47.425Z,19.10
2018-06-10T01:44:45.012Z,18.90
2018-06-10T01:47:13.892Z,18.80
2018-06-10T01:54:39.595Z,18.30
2018-06-10T01:57:08.595Z,18.20
2018-06-10T01:59:37.435Z,18.20
2018-06-10T02:02:06.260Z,18.20
2018-06-10T02:04:35.057Z,18.10
2018-06-10T02:07:04.124Z,18.00
2018-06-10T02:09:32.987Z,18.20
2018-06-10T02:12:01.884Z,18.30
2018-06-10T02:14:30.820Z,18.30
2018-06-10T02:16:59.772Z,18.40
2018-06-10T02:19:28.795Z,18.40
2018-06-10T02:21:57.650Z,18.00
2018-06-10T02:24:26.498Z,17.40
2018-06-10T02:26:55.379Z,17.30
2018-06-10T02:29:24.229Z,17.20
2018-06-10T02:31:53.324Z,17.20
2018-06-10T02:34:22.227Z,17.40
2018-06-10T02:36:51.193Z,17.30
2018-06-10T02:39:20.051Z,17.40
2018-06-10T02:44:17.425Z,17.50
2018-06-10T02:46:47.239Z,17.20
2018-06-10T02:51:44.609Z,17.20
2018-06-10T02:56:42.191Z,17.30
2018-06-10T03:01:39.627Z,17.30
2018-06-10T03:04:08.521Z,17.30
2018-06-10T03:06:37.364Z,17.30
2018-06-10T03:09:07.648Z,17.30
2018-06-10T03:11:36.482Z,17.40
2018-06-10T03:14:05.377Z,17.40
2018-06-10T03:16:34.287Z,17.40
2018-06-10T03:19:03.141Z,17.30
2018-06-10T03:21:31.980Z,17.40
2018-06-10T03:24:00.956Z,17.40
2018-06-10T03:26:29.886Z,17.40
2018-06-10T03:28:58.771Z,17.30
2018-06-10T03:31:27.594Z,17.40
2018-06-10T03:33:56.486Z,17.40
2018-06-10T03:36:25.457Z,17.20
2018-06-10T03:41:22.806Z,17.40
2018-06-10T03:43:51.602Z,17.60
2018-06-10T03:48:48.901Z,17.60
2018-06-10T03:51:17.788Z,17.60
2018-06-10T03:56:15.036Z,17.70
2018-06-10T04:01:12.354Z,17.40
2018-06-10T04:03:41.517Z,17.10
2018-06-10T04:06:10.703Z,16.90
2018-06-10T04:08:39.569Z,17.00
2018-06-10T04:11:08.465Z,17.20
2018-06-10T04:13:37.399Z,17.40
2018-06-10T04:16:06.256Z,17.40
2018-06-10T04:18:35.155Z,17.50
2018-06-10T04:21:04.082Z,17.40
2018-06-10T04:23:33.037Z,17.40
2018-06-10T04:26:01.970Z,17.20
2018-06-10T04:28:30.828Z,17.10
2018-06-10T04:30:59.794Z,17.10
2018-06-10T04:35:57.289Z,17.30
2018-06-10T04:38:26.190Z,17.50
2018-06-10T04:40:55.145Z,17.70
2018-06-10T04:43:23.972Z,17.60
2018-06-10T04:45:52.894Z,17.70
2018-06-10T04:48:21.800Z,17.60
2018-06-10T04:50:50.714Z,17.70
2018-06-10T04:55:48.062Z,17.70
2018-06-10T04:58:17.080Z,17.70
2018-06-10T05:03:14.874Z,17.60
2018-06-10T05:05:43.722Z,17.60
2018-06-10T05:08:12.544Z,17.30
2018-06-10T05:10:41.491Z,17.10
2018-06-10T05:13:10.458Z,17.00
2018-06-10T05:15:39.461Z,17.00
2018-06-10T05:18:08.349Z,17.10
2018-06-10T05:20:37.248Z,17.00
2018-06-10T05:23:06.200Z,17.10
2018-06-10T05:25:35.194Z,17.20
2018-06-10T05:28:04.109Z,17.20
2018-06-10T05:30:33.000Z,17.20
2018-06-10T05:33:01.813Z,17.20
2018-06-10T05:35:30.664Z,17.30
2018-06-10T05:37:59.580Z,17.40
2018-06-10T05:40:28.501Z,17.50
2018-06-10T05:42:57.420Z,17.60
2018-06-10T05:45:26.292Z,17.70
2018-06-10T05:50:23.690Z,17.90
2018-06-10T05:52:52.628Z,18.00
2018-06-10T05:55:21.540Z,18.00
2018-06-10T06:00:19.993Z,18.20
2018-06-10T06:02:48.850Z,18.30
2018-06-10T06:05:17.764Z,18.40
2018-06-10T06:07:46.588Z,18.40
2018-06-10T06:10:15.495Z,18.50
2018-06-10T06:15:12.821Z,18.60
2018-06-10T06:17:41.658Z,18.70
2018-06-10T06:22:39.021Z,18.80
2018-06-10T06:27:36.532Z,19.00
2018-06-10T06:30:05.564Z,19.00
2018-06-10T06:32:34.418Z,19.10
2018-06-10T06:35:03.415Z,19.20
2018-06-10T06:37:32.359Z,19.20
2018-06-10T06:40:01.250Z,19.30
2018-06-10T06:44:58.732Z,19.50
2018-06-10T06:49:56.144Z,19.60
2018-06-10T06:52:25.005Z,19.70
2018-06-10T06:54:53.930Z,19.80
2018-06-10T06:57:22.887Z,19.90
2018-06-10T06:59:51.795Z,20.00
2018-06-10T07:02:20.746Z,20.10
2018-06-10T07:07:18.148Z,20.40
2018-06-10T07:09:47.081Z,20.50
2018-06-10T07:12:16.027Z,20.50
2018-06-10T07:14:44.892Z,20.70
2018-06-10T07:19:42.471Z,20.90
2018-06-10T07:24:39.845Z,20.80
2018-06-10T07:29:37.124Z,20.90
2018-06-10T07:32:06.005Z,21.10
2018-06-10T07:34:34.864Z,21.10
2018-06-10T07:37:03.832Z,21.20
2018-06-10T07:39:32.661Z,21.30
2018-06-10T07:44:29.989Z,21.40
2018-06-10T07:46:58.945Z,21.60
2018-06-10T07:49:27.782Z,21.70
2018-06-10T07:51:56.708Z,21.70
2018-06-10T07:56:54.034Z,21.80
2018-06-10T07:59:22.987Z,21.90
2018-06-10T08:01:51.907Z,21.90
2018-06-10T08:04:20.809Z,22.00
2018-06-10T08:06:49.738Z,22.10
2018-06-10T08:11:47.012Z,22.30
2018-06-10T08:16:44.424Z,22.50
2018-06-10T08:19:13.281Z,22.70
2018-06-10T08:21:42.237Z,22.70
2018-06-10T08:24:11.096Z,22.80
2018-06-10T08:26:40.086Z,22.90
2018-06-10T08:29:08.958Z,23.00
2018-06-10T08:31:38.066Z,23.00
2018-06-10T08:34:07.100Z,23.20
2018-06-10T08:36:35.935Z,23.30
2018-06-10T08:39:07.149Z,23.50
2018-06-10T08:44:04.559Z,23.60
2018-06-10T08:46:33.464Z,23.60
2018-06-10T08:49:02.660Z,23.80
2018-06-10T08:51:31.560Z,23.80
2018-06-10T08:54:00.468Z,23.90
2018-06-10T08:56:29.453Z,23.90
2018-06-10T08:58:58.289Z,24.00
2018-06-10T09:01:27.208Z,24.10
2018-06-10T09:03:56.115Z,24.10
2018-06-10T09:06:24.994Z,24.20
2018-06-10T09:08:53.990Z,24.30
2018-06-10T09:11:22.810Z,24.40
2018-06-10T09:13:51.658Z,24.50
2018-06-10T09:16:21.753Z,24.60
2018-06-10T09:18:50.604Z,24.70
2018-06-10T09:21:19.472Z,24.80
2018-06-10T09:23:48.298Z,24.90
2018-06-10T09:28:45.536Z,25.20
2018-06-10T09:31:14.355Z,25.30
2018-06-10T09:36:11.916Z,25.60
2018-06-10T09:38:40.722Z,25.80
2018-06-10T09:41:09.581Z,25.80
2018-06-10T09:43:38.440Z,25.90
2018-06-10T09:46:07.322Z,25.90
2018-06-10T09:48:36.138Z,25.90
2018-06-10T09:51:04.956Z,26.00
2018-06-10T09:56:02.212Z,26.00
2018-06-10T09:58:31.096Z,26.00
2018-06-10T10:00:59.972Z,25.90
2018-06-10T10:03:28.825Z,26.00
2018-06-10T10:05:57.728Z,26.00
2018-06-10T10:08:26.538Z,26.00
2018-06-10T10:11:00.382Z,26.10
2018-06-10T10:13:29.299Z,26.20
2018-06-10T10:15:58.139Z,26.30
2018-06-10T10:18:27.014Z,26.40
2018-06-10T10:20:55.885Z,26.50
2018-06-10T10:23:24.726Z,26.60
2018-06-10T10:28:22.071Z,26.70
2018-06-10T10:30:51.015Z,26.70
2018-06-10T10:33:19.835Z,26.80
2018-06-10T10:35:48.742Z,26.80
2018-06-10T10:38:17.643Z,27.00
2018-06-10T10:43:16.062Z,27.10
2018-06-10T10:45:44.991Z,27.00
2018-06-10T10:48:13.865Z,27.00
2018-06-10T10:50:42.697Z,26.90
2018-06-10T10:53:11.650Z,27.00
2018-06-10T10:55:40.543Z,27.00
2018-06-10T10:58:09.637Z,26.90
2018-06-10T11:00:38.622Z,27.00
2018-06-10T11:03:07.500Z,27.20
2018-06-10T11:05:36.441Z,27.30
2018-06-10T11:08:05.302Z,27.50
2018-06-10T11:10:34.200Z,27.50
2018-06-10T11:13:03.636Z,27.50
2018-06-10T11:15:32.532Z,27.40
2018-06-10T11:18:01.494Z,27.40
2018-06-10T11:20:30.476Z,27.40
2018-06-10T11:22:59.384Z,27.40
2018-06-10T11:25:28.291Z,27.30
2018-06-10T11:27:57.253Z,27.30
2018-06-10T11:30:26.203Z,27.40
2018-06-10T11:32:55.129Z,27.30
2018-06-10T11:35:24.038Z,27.40
2018-06-10T11:37:52.924Z,27.40
2018-06-10T11:40:21.780Z,27.40
2018-06-10T11:42:50.785Z,27.40
2018-06-10T11:45:19.653Z,27.30
2018-06-10T11:47:48.510Z,27.20
2018-06-10T11:52:45.889Z,27.10
2018-06-10T11:55:14.862Z,27.00
2018-06-10T11:57:43.729Z,27.00
2018-06-10T12:00:12.618Z,26.90
2018-06-10T12:02:41.598Z,27.00
2018-06-10T12:05:10.497Z,27.10
2018-06-10T12:07:39.381Z,27.30
2018-06-10T12:10:08.224Z,27.60
2018-06-10T12:12:37.066Z,27.70
2018-06-10T12:15:07.562Z,27.80
2018-06-10T12:22:33.771Z,28.10
2018-06-10T12:25:02.626Z,28.30
2018-06-10T12:27:31.886Z,28.50
2018-06-10T12:32:29.285Z,28.80
2018-06-10T12:34:58.150Z,28.90
2018-06-10T12:37:27.873Z,28.90
2018-06-10T12:39:56.708Z,29.10
2018-06-10T12:42:25.541Z,29.20
2018-06-10T12:44:54.849Z,29.40
2018-06-10T12:47:23.782Z,29.30
2018-06-10T12:49:52.650Z,29.30
2018-06-10T12:52:21.540Z,29.30
2018-06-10T12:54:50.497Z,29.40
2018-06-10T12:57:19.390Z,29.40
2018-06-10T12:59:48.260Z,29.50
2018-06-10T13:02:17.254Z,29.60
2018-06-10T13:04:46.119Z,29.80
2018-06-10T13:07:14.957Z,29.90
2018-06-10T13:09:43.875Z,30.00
2018-06-10T13:12:12.731Z,30.10
2018-06-10T13:14:41.605Z,30.10
2018-06-10T13:19:39.009Z,30.10
2018-06-10T13:22:07.415Z,29.90
2018-06-10T13:24:36.340Z,29.80
2018-06-10T13:27:05.281Z,29.60
2018-06-10T13:29:34.161Z,29.40
2018-06-10T13:32:03.244Z,29.30
2018-06-10T13:34:32.076Z,29.10
2018-06-10T13:37:00.981Z,29.10
2018-06-10T13:39:29.829Z,28.90
2018-06-10T13:41:58.780Z,28.80
2018-06-10T13:46:56.214Z,28.60
2018-06-10T13:49:25.153Z,28.50
2018-06-10T13:56:50.974Z,28.40
2018-06-10T13:59:19.867Z,28.30
2018-06-10T14:01:48.805Z,27.90
2018-06-10T14:04:17.686Z,27.90
2018-06-10T14:06:46.596Z,27.00
2018-06-10T14:09:15.461Z,26.20
2018-06-10T14:11:44.412Z,25.40
2018-06-10T14:14:13.255Z,25.40
2018-06-10T14:16:42.097Z,25.40
2018-06-10T14:19:11.055Z,25.80
2018-06-10T14:21:39.941Z,26.10
2018-06-10T14:24:08.870Z,26.10
2018-06-10T14:26:37.726Z,25.90
2018-06-10T14:29:06.641Z,26.20
2018-06-10T14:31:36.498Z,26.40
2018-06-10T14:34:05.377Z,26.50
2018-06-10T14:36:34.321Z,26.70
2018-06-10T14:39:03.461Z,26.90
2018-06-10T14:44:00.927Z,27.20
2018-06-10T14:48:58.166Z,27.00
2018-06-10T14:51:27.022Z,26.60
2018-06-10T14:53:55.892Z,26.30
2018-06-10T14:56:24.770Z,26.70
2018-06-10T15:01:22.520Z,26.60
2018-06-10T15:03:51.370Z,26.50
2018-06-10T15:06:20.308Z,26.40
2018-06-10T15:08:49.208Z,26.10
2018-06-10T15:13:46.680Z,25.70
2018-06-10T15:18:43.977Z,25.80
2018-06-10T15:21:12.843Z,26.10
2018-06-10T15:23:41.685Z,26.20
2018-06-10T15:26:10.998Z,26.30
2018-06-10T15:28:39.954Z,26.40
2018-06-10T15:31:08.816Z,26.40
2018-06-10T15:36:06.150Z,26.30
2018-06-10T15:38:35.042Z,26.50
2018-06-10T15:41:04.035Z,26.70
2018-06-10T15:43:32.979Z,26.70
2018-06-10T15:46:01.885Z,26.70
2018-06-10T15:48:30.848Z,26.70
2018-06-10T15:50:59.806Z,26.60
2018-06-10T15:53:28.774Z,26.60
2018-06-10T15:55:57.775Z,26.60
2018-06-10T15:58:26.689Z,26.50
2018-06-10T16:00:55.591Z,26.50
2018-06-10T16:05:52.915Z,26.40
2018-06-10T16:08:21.864Z,26.40
2018-06-10T16:15:47.768Z,26.40
2018-06-10T16:18:16.657Z,26.40
2018-06-10T16:20:45.588Z,25.70
2018-06-10T16:25:42.994Z,25.80
2018-06-10T16:28:11.890Z,25.60
2018-06-10T16:30:40.866Z,25.60
2018-06-10T16:33:09.827Z,25.60
2018-06-10T16:38:07.240Z,25.00
2018-06-10T16:40:36.235Z,24.80
2018-06-10T16:43:05.193Z,25.00
2018-06-10T16:45:34.086Z,25.30
2018-06-10T16:48:03.089Z,25.70
2018-06-10T16:50:32.085Z,25.90
2018-06-10T16:53:00.959Z,26.30
2018-06-10T16:55:29.887Z,26.30
2018-06-10T16:57:58.777Z,26.40
2018-06-10T17:00:27.700Z,26.50
2018-06-10T17:02:56.578Z,26.60
2018-06-10T17:05:25.472Z,26.60
2018-06-10T17:07:54.336Z,26.30
2018-06-10T17:10:23.289Z,25.80
2018-06-10T17:12:52.254Z,25.50
2018-06-10T17:15:21.099Z,25.40
2018-06-10T17:17:50.018Z,25.40
2018-06-10T17:22:47.866Z,25.00
2018-06-10T17:25:16.788Z,25.00
2018-06-10T17:27:45.679Z,25.10
2018-06-10T17:30:14.644Z,25.20
2018-06-10T17:32:43.492Z,25.20
2018-06-10T17:35:12.401Z,25.20
